Terminal Aerodrome Forecast
Issued by NWS Bismarck, ND

Home | Current Version | Previous Version | Text Only | Print | Product List | Glossary Off
Versions: 1 2 3 4 5 6 7 8 9 10 11 12 13 14 15 16 17

637
FTUS43 KBIS 230536
TAFISN
TAF
KISN 230536Z 2306/2406 VRB03KT P6SM FEW250
     FM231100 26004KT P6SM SCT015
     FM231700 23005KT P6SM SCT250=

USA.gov is the U.S. government's official web portal to all federal, state and local government web resources and services.